sensor_id;sensor_type;location;lat;lon;timestamp;pressure;altitude;pressure_sealevel;temperature;humidity
47742;BME280;33504;52.066;6.096;2023-06-22T00:01:50;101874.49;;;22.46;42.53
47742;BME280;33504;52.066;6.096;2023-06-22T00:04:17;101872.91;;;22.42;42.60
47742;BME280;33504;52.066;6.096;2023-06-22T00:06:44;101873.18;;;22.15;42.67
47742;BME280;33504;52.066;6.096;2023-06-22T00:09:11;101870.77;;;22.59;42.67
47742;BME280;33504;52.066;6.096;2023-06-22T00:11:38;101870.78;;;22.56;42.80
47742;BME280;33504;52.066;6.096;2023-06-22T00:14:05;101874.68;;;22.53;42.90
47742;BME280;33504;52.066;6.096;2023-06-22T00:16:33;101871.60;;;22.48;43.12
47742;BME280;33504;52.066;6.096;2023-06-22T00:19:00;101867.66;;;22.42;43.05
47742;BME280;33504;52.066;6.096;2023-06-22T00:21:27;101856.85;;;22.40;42.99
47742;BME280;33504;52.066;6.096;2023-06-22T00:23:54;101854.71;;;22.40;43.11
47742;BME280;33504;52.066;6.096;2023-06-22T00:26:22;101855.25;;;22.38;43.12
47742;BME280;33504;52.066;6.096;2023-06-22T00:28:48;101857.66;;;22.35;42.98
47742;BME280;33504;52.066;6.096;2023-06-22T00:31:15;101858.25;;;22.06;43.03
47742;BME280;33504;52.066;6.096;2023-06-22T00:33:43;101856.73;;;22.27;43.13
47742;BME280;33504;52.066;6.096;2023-06-22T00:36:10;101855.34;;;21.98;43.08
47742;BME280;33504;52.066;6.096;2023-06-22T00:38:37;101852.61;;;21.92;43.24
47742;BME280;33504;52.066;6.096;2023-06-22T00:41:04;101844.89;;;21.89;43.18
47742;BME280;33504;52.066;6.096;2023-06-22T00:43:31;101840.24;;;22.10;43.21
47742;BME280;33504;52.066;6.096;2023-06-22T00:45:58;101843.94;;;22.08;43.34
47742;BME280;33504;52.066;6.096;2023-06-22T00:48:26;101851.86;;;22.03;43.39
47742;BME280;33504;52.066;6.096;2023-06-22T00:50:53;101854.68;;;21.98;43.70
47742;BME280;33504;52.066;6.096;2023-06-22T00:53:20;101848.87;;;21.93;43.49
47742;BME280;33504;52.066;6.096;2023-06-22T00:55:48;101846.03;;;21.85;43.74
47742;BME280;33504;52.066;6.096;2023-06-22T00:58:16;101849.86;;;22.08;43.40
47742;BME280;33504;52.066;6.096;2023-06-22T01:00:44;101851.92;;;22.04;43.60
47742;BME280;33504;52.066;6.096;2023-06-22T01:03:11;101850.54;;;22.02;43.59
47742;BME280;33504;52.066;6.096;2023-06-22T01:05:39;101850.60;;;21.98;43.56
47742;BME280;33504;52.066;6.096;2023-06-22T01:08:16;101850.71;;;21.65;43.95
47742;BME280;33504;52.066;6.096;2023-06-22T01:10:48;101855.98;;;21.90;43.85
47742;BME280;33504;52.066;6.096;2023-06-22T01:13:24;101856.89;;;21.61;44.05
47742;BME280;33504;52.066;6.096;2023-06-22T01:15:57;101849.93;;;21.61;43.84
47742;BME280;33504;52.066;6.096;2023-06-22T01:18:28;101848.05;;;21.56;43.59
47742;BME280;33504;52.066;6.096;2023-06-22T01:20:57;101847.86;;;21.70;43.76
47742;BME280;33504;52.066;6.096;2023-06-22T01:23:29;101845.69;;;21.62;43.94
47742;BME280;33504;52.066;6.096;2023-06-22T01:26:06;101845.96;;;21.36;43.83
47742;BME280;33504;52.066;6.096;2023-06-22T01:28:42;101845.66;;;21.28;43.83
47742;BME280;33504;52.066;6.096;2023-06-22T01:31:12;101845.84;;;21.43;43.86
47742;BME280;33504;52.066;6.096;2023-06-22T01:33:42;101843.07;;;21.39;44.34
47742;BME280;33504;52.066;6.096;2023-06-22T01:36:10;101837.36;;;21.33;44.13
47742;BME280;33504;52.066;6.096;2023-06-22T01:38:38;101835.74;;;21.30;44.50
47742;BME280;33504;52.066;6.096;2023-06-22T01:41:05;101835.95;;;21.30;44.25
47742;BME280;33504;52.066;6.096;2023-06-22T01:43:33;101835.77;;;21.29;44.31
47742;BME280;33504;52.066;6.096;2023-06-22T01:46:02;101837.16;;;21.05;44.15
47742;BME280;33504;52.066;6.096;2023-06-22T01:48:30;101837.41;;;21.26;44.10
47742;BME280;33504;52.066;6.096;2023-06-22T01:50:57;101835.24;;;21.22;44.10
47742;BME280;33504;52.066;6.096;2023-06-22T01:53:25;101829.51;;;20.96;44.17
47742;BME280;33504;52.066;6.096;2023-06-22T01:55:52;101823.95;;;21.14;44.23
47742;BME280;33504;52.066;6.096;2023-06-22T01:58:20;101819.60;;;21.10;44.17
47742;BME280;33504;52.066;6.096;2023-06-22T02:00:53;101816.59;;;21.05;44.15
47742;BME280;33504;52.066;6.096;2023-06-22T02:03:25;101821.58;;;21.00;44.25
47742;BME280;33504;52.066;6.096;2023-06-22T02:05:58;101825.18;;;20.95;44.32
47742;BME280;33504;52.066;6.096;2023-06-22T02:08:30;101827.50;;;20.91;44.52
47742;BME280;33504;52.066;6.096;2023-06-22T02:10:59;101826.81;;;20.87;44.56
47742;BME280;33504;52.066;6.096;2023-06-22T02:13:27;101825.80;;;20.87;44.51
47742;BME280;33504;52.066;6.096;2023-06-22T02:15:54;101830.53;;;21.14;44.35
47742;BME280;33504;52.066;6.096;2023-06-22T02:18:22;101833.64;;;20.85;44.48
47742;BME280;33504;52.066;6.096;2023-06-22T02:20:48;101834.94;;;20.85;44.47
47742;BME280;33504;52.066;6.096;2023-06-22T02:23:16;101833.66;;;20.84;44.49
47742;BME280;33504;52.066;6.096;2023-06-22T02:25:43;101833.51;;;20.81;44.51
47742;BME280;33504;52.066;6.096;2023-06-22T02:28:10;101831.58;;;20.57;44.52
47742;BME280;33504;52.066;6.096;2023-06-22T02:30:37;101828.96;;;20.77;44.63
47742;BME280;33504;52.066;6.096;2023-06-22T02:33:04;101829.61;;;21.01;44.60
47742;BME280;33504;52.066;6.096;2023-06-22T02:35:31;101825.33;;;20.72;44.69
47742;BME280;33504;52.066;6.096;2023-06-22T02:37:58;101823.64;;;20.73;44.68
47742;BME280;33504;52.066;6.096;2023-06-22T02:40:25;101818.37;;;20.73;44.65
47742;BME280;33504;52.066;6.096;2023-06-22T02:42:52;101811.88;;;20.72;44.66
47742;BME280;33504;52.066;6.096;2023-06-22T02:45:19;101812.95;;;20.69;44.75
47742;BME280;33504;52.066;6.096;2023-06-22T02:47:46;101810.50;;;20.89;44.81
47742;BME280;33504;52.066;6.096;2023-06-22T02:50:13;101810.84;;;20.61;44.82
47742;BME280;33504;52.066;6.096;2023-06-22T02:52:41;101812.10;;;20.60;44.77
47742;BME280;33504;52.066;6.096;2023-06-22T02:55:08;101813.47;;;20.84;44.89
47742;BME280;33504;52.066;6.096;2023-06-22T02:57:35;101813.23;;;20.81;44.87
47742;BME280;33504;52.066;6.096;2023-06-22T03:00:03;101813.78;;;20.56;44.96
47742;BME280;33504;52.066;6.096;2023-06-22T03:02:30;101816.64;;;20.53;44.88
47742;BME280;33504;52.066;6.096;2023-06-22T03:04:57;101817.40;;;20.54;44.93
47742;BME280;33504;52.066;6.096;2023-06-22T03:07:24;101816.81;;;20.53;44.90
47742;BME280;33504;52.066;6.096;2023-06-22T03:09:51;101813.97;;;20.81;44.93
47742;BME280;33504;52.066;6.096;2023-06-22T03:12:18;101811.78;;;20.49;45.10
47742;BME280;33504;52.066;6.096;2023-06-22T03:14:46;101808.11;;;20.96;45.07
47742;BME280;33504;52.066;6.096;2023-06-22T03:17:12;101803.41;;;20.48;44.95
47742;BME280;33504;52.066;6.096;2023-06-22T03:19:39;101805.88;;;20.46;45.02
47742;BME280;33504;52.066;6.096;2023-06-22T03:22:06;101808.16;;;20.43;44.98
47742;BME280;33504;52.066;6.096;2023-06-22T03:24:33;101803.80;;;20.38;44.98
47742;BME280;33504;52.066;6.096;2023-06-22T03:27:00;101802.71;;;20.36;44.94
47742;BME280;33504;52.066;6.096;2023-06-22T03:29:27;101802.12;;;20.34;44.99
47742;BME280;33504;52.066;6.096;2023-06-22T03:31:54;101805.89;;;20.29;45.00
47742;BME280;33504;52.066;6.096;2023-06-22T03:34:21;101810.28;;;20.23;45.19
47742;BME280;33504;52.066;6.096;2023-06-22T03:36:48;101805.31;;;20.49;45.02
47742;BME280;33504;52.066;6.096;2023-06-22T03:39:15;101796.07;;;20.17;45.00
47742;BME280;33504;52.066;6.096;2023-06-22T03:41:42;101793.21;;;20.41;45.02
47742;BME280;33504;52.066;6.096;2023-06-22T03:44:09;101796.20;;;20.04;45.40
47742;BME280;33504;52.066;6.096;2023-06-22T03:46:36;101794.64;;;20.27;45.32
47742;BME280;33504;52.066;6.096;2023-06-22T03:49:03;101790.59;;;20.25;45.42
47742;BME280;33504;52.066;6.096;2023-06-22T03:51:31;101787.32;;;20.42;45.75
47742;BME280;33504;52.066;6.096;2023-06-22T03:53:58;101787.61;;;20.18;45.61
47742;BME280;33504;52.066;6.096;2023-06-22T03:56:25;101784.85;;;20.13;45.56
47742;BME280;33504;52.066;6.096;2023-06-22T03:58:52;101786.69;;;20.33;45.56
47742;BME280;33504;52.066;6.096;2023-06-22T04:01:19;101790.91;;;20.31;45.63
47742;BME280;33504;52.066;6.096;2023-06-22T04:03:46;101788.13;;;20.23;45.93
47742;BME280;33504;52.066;6.096;2023-06-22T04:06:14;101783.39;;;20.25;45.83
47742;BME280;33504;52.066;6.096;2023-06-22T04:08:41;101785.32;;;19.75;45.87
47742;BME280;33504;52.066;6.096;2023-06-22T04:11:08;101785.72;;;20.23;45.89
47742;BME280;33504;52.066;6.096;2023-06-22T04:13:34;101784.75;;;20.19;46.05
47742;BME280;33504;52.066;6.096;2023-06-22T04:16:01;101785.92;;;20.20;45.99
47742;BME280;33504;52.066;6.096;2023-06-22T04:18:28;101780.35;;;20.16;46.07
47742;BME280;33504;52.066;6.096;2023-06-22T04:20:55;101776.67;;;20.17;46.11
47742;BME280;33504;52.066;6.096;2023-06-22T04:23:22;101777.80;;;20.14;46.31
47742;BME280;33504;52.066;6.096;2023-06-22T04:25:49;101780.58;;;19.98;46.16
47742;BME280;33504;52.066;6.096;2023-06-22T04:28:16;101782.85;;;20.00;46.37
47742;BME280;33504;52.066;6.096;2023-06-22T04:30:43;101785.25;;;20.07;46.22
47742;BME280;33504;52.066;6.096;2023-06-22T04:33:10;101784.61;;;20.34;46.25
47742;BME280;33504;52.066;6.096;2023-06-22T04:35:37;101783.07;;;19.89;46.51
47742;BME280;33504;52.066;6.096;2023-06-22T04:38:04;101777.61;;;20.23;46.39
47742;BME280;33504;52.066;6.096;2023-06-22T04:40:31;101779.17;;;20.03;46.48
47742;BME280;33504;52.066;6.096;2023-06-22T04:42:58;101780.10;;;20.35;46.49
47742;BME280;33504;52.066;6.096;2023-06-22T04:45:25;101779.41;;;20.40;46.56
47742;BME280;33504;52.066;6.096;2023-06-22T04:47:53;101779.10;;;20.51;46.48
47742;BME280;33504;52.066;6.096;2023-06-22T04:50:20;101778.21;;;20.57;46.46
47742;BME280;33504;52.066;6.096;2023-06-22T04:52:47;101780.39;;;20.36;46.59
47742;BME280;33504;52.066;6.096;2023-06-22T04:55:14;101781.91;;;20.44;46.48
47742;BME280;33504;52.066;6.096;2023-06-22T04:57:42;101782.10;;;20.48;46.76
47742;BME280;33504;52.066;6.096;2023-06-22T05:00:10;101778.34;;;20.51;46.64
47742;BME280;33504;52.066;6.096;2023-06-22T05:02:37;101772.30;;;20.55;46.88
47742;BME280;33504;52.066;6.096;2023-06-22T05:05:04;101776.78;;;20.64;46.63
47742;BME280;33504;52.066;6.096;2023-06-22T05:07:32;101779.60;;;20.68;46.81
47742;BME280;33504;52.066;6.096;2023-06-22T05:09:58;101780.03;;;20.70;46.93
47742;BME280;33504;52.066;6.096;2023-06-22T05:12:25;101778.00;;;20.74;46.91
47742;BME280;33504;52.066;6.096;2023-06-22T05:14:52;101778.87;;;20.80;46.97
47742;BME280;33504;52.066;6.096;2023-06-22T05:17:19;101777.50;;;20.90;47.04
47742;BME280;33504;52.066;6.096;2023-06-22T05:19:47;101776.11;;;21.00;46.92
47742;BME280;33504;52.066;6.096;2023-06-22T05:22:14;101779.69;;;21.12;46.84
47742;BME280;33504;52.066;6.096;2023-06-22T05:24:41;101782.45;;;21.20;46.87
47742;BME280;33504;52.066;6.096;2023-06-22T05:27:08;101778.89;;;21.31;46.94
47742;BME280;33504;52.066;6.096;2023-06-22T05:29:36;101778.60;;;21.41;46.88
47742;BME280;33504;52.066;6.096;2023-06-22T05:32:04;101780.23;;;21.46;46.86
47742;BME280;33504;52.066;6.096;2023-06-22T05:34:30;101780.52;;;21.56;46.65
47742;BME280;33504;52.066;6.096;2023-06-22T05:36:58;101776.76;;;21.42;46.71
47742;BME280;33504;52.066;6.096;2023-06-22T05:39:25;101777.68;;;21.50;46.60
47742;BME280;33504;52.066;6.096;2023-06-22T05:41:52;101778.92;;;21.80;46.60
47742;BME280;33504;52.066;6.096;2023-06-22T05:44:19;101783.56;;;21.65;46.64
47742;BME280;33504;52.066;6.096;2023-06-22T05:46:46;101781.74;;;21.76;46.58
47742;BME280;33504;52.066;6.096;2023-06-22T05:49:14;101785.14;;;22.05;46.69
47742;BME280;33504;52.066;6.096;2023-06-22T05:51:41;101792.50;;;21.97;46.48
47742;BME280;33504;52.066;6.096;2023-06-22T05:54:08;101792.10;;;22.01;46.50
47742;BME280;33504;52.066;6.096;2023-06-22T05:56:35;101792.63;;;21.86;46.52
47742;BME280;33504;52.066;6.096;2023-06-22T05:59:01;101791.27;;;22.25;46.34
47742;BME280;33504;52.066;6.096;2023-06-22T06:01:28;101791.66;;;22.35;46.24
47742;BME280;33504;52.066;6.096;2023-06-22T06:03:55;101797.36;;;22.49;46.17
47742;BME280;33504;52.066;6.096;2023-06-22T06:06:23;101794.82;;;22.09;46.02
47742;BME280;33504;52.066;6.096;2023-06-22T06:08:50;101794.91;;;22.45;45.92
47742;BME280;33504;52.066;6.096;2023-06-22T06:11:17;101790.56;;;22.58;45.91
47742;BME280;33504;52.066;6.096;2023-06-22T06:13:44;101788.53;;;22.78;45.90
47742;BME280;33504;52.066;6.096;2023-06-22T06:16:12;101786.60;;;22.91;45.79
47742;BME280;33504;52.066;6.096;2023-06-22T06:18:39;101786.64;;;23.13;45.57
47742;BME280;33504;52.066;6.096;2023-06-22T06:21:06;101784.26;;;22.84;45.56
47742;BME280;33504;52.066;6.096;2023-06-22T06:23:33;101785.24;;;23.19;45.46
47742;BME280;33504;52.066;6.096;2023-06-22T06:26:00;101787.61;;;23.15;45.32
47742;BME280;33504;52.066;6.096;2023-06-22T06:28:27;101787.32;;;23.28;45.45
47742;BME280;33504;52.066;6.096;2023-06-22T06:30:54;101786.37;;;23.44;45.12
47742;BME280;33504;52.066;6.096;2023-06-22T06:33:21;101782.16;;;23.48;44.53
47742;BME280;33504;52.066;6.096;2023-06-22T06:35:48;101784.19;;;23.33;44.51
47742;BME280;33504;52.066;6.096;2023-06-22T06:38:15;101779.37;;;23.37;43.57
47742;BME280;33504;52.066;6.096;2023-06-22T06:40:42;101777.06;;;23.44;43.03
47742;BME280;33504;52.066;6.096;2023-06-22T06:43:09;101774.76;;;23.71;42.93
47742;BME280;33504;52.066;6.096;2023-06-22T06:45:36;101770.83;;;23.77;43.13
47742;BME280;33504;52.066;6.096;2023-06-22T06:48:04;101768.74;;;23.80;43.20
47742;BME280;33504;52.066;6.096;2023-06-22T06:50:31;101766.07;;;23.82;43.32
47742;BME280;33504;52.066;6.096;2023-06-22T06:52:58;101765.61;;;23.88;42.72
47742;BME280;33504;52.066;6.096;2023-06-22T06:55:25;101767.65;;;24.55;42.38
47742;BME280;33504;52.066;6.096;2023-06-22T06:57:52;101766.67;;;24.49;42.06
47742;BME280;33504;52.066;6.096;2023-06-22T07:00:20;101763.20;;;24.18;41.86
47742;BME280;33504;52.066;6.096;2023-06-22T07:02:47;101760.95;;;24.39;41.56
47742;BME280;33504;52.066;6.096;2023-06-22T07:05:14;101758.82;;;24.52;41.11
47742;BME280;33504;52.066;6.096;2023-06-22T07:07:41;101760.52;;;24.97;40.89
47742;BME280;33504;52.066;6.096;2023-06-22T07:10:08;101760.25;;;24.55;40.74
47742;BME280;33504;52.066;6.096;2023-06-22T07:12:35;101756.29;;;24.69;40.85
47742;BME280;33504;52.066;6.096;2023-06-22T07:15:03;101753.44;;;24.86;40.52
47742;BME280;33504;52.066;6.096;2023-06-22T07:17:31;101752.79;;;25.21;40.02
47742;BME280;33504;52.066;6.096;2023-06-22T07:19:58;101749.95;;;25.21;39.67
47742;BME280;33504;52.066;6.096;2023-06-22T07:22:25;101749.75;;;24.93;39.84
47742;BME280;33504;52.066;6.096;2023-06-22T07:24:52;101748.51;;;24.82;39.92
47742;BME280;33504;52.066;6.096;2023-06-22T07:27:19;101742.32;;;25.22;39.59
47742;BME280;33504;52.066;6.096;2023-06-22T07:29:46;101736.83;;;25.39;39.39
47742;BME280;33504;52.066;6.096;2023-06-22T07:32:14;101737.67;;;25.12;39.68
47742;BME280;33504;52.066;6.096;2023-06-22T07:34:41;101741.31;;;25.43;39.59
47742;BME280;33504;52.066;6.096;2023-06-22T07:37:08;101737.74;;;25.41;39.29
47742;BME280;33504;52.066;6.096;2023-06-22T07:39:35;101735.42;;;24.98;39.70
47742;BME280;33504;52.066;6.096;2023-06-22T07:42:03;101728.33;;;25.34;39.51
47742;BME280;33504;52.066;6.096;2023-06-22T07:44:30;101727.10;;;25.88;39.43
47742;BME280;33504;52.066;6.096;2023-06-22T07:46:57;101728.72;;;25.64;39.42
47742;BME280;33504;52.066;6.096;2023-06-22T07:49:24;101730.78;;;25.90;39.33
47742;BME280;33504;52.066;6.096;2023-06-22T07:51:50;101726.01;;;26.10;38.79
47742;BME280;33504;52.066;6.096;2023-06-22T07:54:17;101721.95;;;26.21;39.12
47742;BME280;33504;52.066;6.096;2023-06-22T07:56:46;101717.45;;;26.20;38.11
47742;BME280;33504;52.066;6.096;2023-06-22T07:59:14;101717.37;;;26.58;38.17
47742;BME280;33504;52.066;6.096;2023-06-22T08:01:41;101716.59;;;26.67;37.48
47742;BME280;33504;52.066;6.096;2023-06-22T08:04:08;101716.74;;;26.68;37.03
47742;BME280;33504;52.066;6.096;2023-06-22T08:06:34;101713.04;;;27.10;37.62
47742;BME280;33504;52.066;6.096;2023-06-22T08:09:02;101710.85;;;26.89;37.70
47742;BME280;33504;52.066;6.096;2023-06-22T08:11:29;101706.34;;;27.03;37.43
47742;BME280;33504;52.066;6.096;2023-06-22T08:13:56;101702.42;;;27.04;37.39
47742;BME280;33504;52.066;6.096;2023-06-22T08:16:23;101705.45;;;26.94;37.42
47742;BME280;33504;52.066;6.096;2023-06-22T08:18:50;101700.78;;;27.04;36.97
47742;BME280;33504;52.066;6.096;2023-06-22T08:21:17;101691.86;;;27.33;37.00
47742;BME280;33504;52.066;6.096;2023-06-22T08:23:45;101686.55;;;27.05;37.25
47742;BME280;33504;52.066;6.096;2023-06-22T08:26:12;101681.76;;;27.27;36.66
47742;BME280;33504;52.066;6.096;2023-06-22T08:28:39;101677.05;;;27.35;36.97
47742;BME280;33504;52.066;6.096;2023-06-22T08:31:05;101677.70;;;27.57;36.91
47742;BME280;33504;52.066;6.096;2023-06-22T08:33:32;101673.92;;;27.71;36.55
47742;BME280;33504;52.066;6.096;2023-06-22T08:35:59;101669.17;;;27.57;36.01
47742;BME280;33504;52.066;6.096;2023-06-22T08:38:26;101662.65;;;27.42;36.63
47742;BME280;33504;52.066;6.096;2023-06-22T08:40:53;101657.23;;;27.80;35.82
47742;BME280;33504;52.066;6.096;2023-06-22T08:43:21;101652.05;;;27.78;35.90
47742;BME280;33504;52.066;6.096;2023-06-22T08:45:48;101651.40;;;27.30;36.11
47742;BME280;33504;52.066;6.096;2023-06-22T08:48:15;101654.93;;;27.84;34.97
47742;BME280;33504;52.066;6.096;2023-06-22T08:50:42;101655.70;;;27.56;34.87
47742;BME280;33504;52.066;6.096;2023-06-22T08:53:09;101654.38;;;27.82;35.23
47742;BME280;33504;52.066;6.096;2023-06-22T08:55:36;101652.06;;;28.02;35.06
47742;BME280;33504;52.066;6.096;2023-06-22T08:58:03;101650.36;;;28.21;34.45
47742;BME280;33504;52.066;6.096;2023-06-22T09:00:30;101653.05;;;27.61;34.42
47742;BME280;33504;52.066;6.096;2023-06-22T09:02:58;101651.14;;;28.06;34.43
47742;BME280;33504;52.066;6.096;2023-06-22T09:05:25;101648.81;;;27.82;33.95
47742;BME280;33504;52.066;6.096;2023-06-22T09:07:52;101646.63;;;28.00;34.39
47742;BME280;33504;52.066;6.096;2023-06-22T09:10:19;101651.54;;;28.38;33.82
47742;BME280;33504;52.066;6.096;2023-06-22T09:12:46;101649.04;;;28.24;34.43
47742;BME280;33504;52.066;6.096;2023-06-22T09:15:13;101648.92;;;28.57;33.99
47742;BME280;33504;52.066;6.096;2023-06-22T09:17:40;101646.62;;;28.61;33.84
47742;BME280;33504;52.066;6.096;2023-06-22T09:20:08;101645.61;;;28.26;34.07
47742;BME280;33504;52.066;6.096;2023-06-22T09:22:35;101635.01;;;28.90;32.91
47742;BME280;33504;52.066;6.096;2023-06-22T09:25:03;101636.73;;;29.01;32.93
47742;BME280;33504;52.066;6.096;2023-06-22T09:27:29;101637.66;;;29.19;31.89
47742;BME280;33504;52.066;6.096;2023-06-22T09:29:56;101638.98;;;28.74;32.25
47742;BME280;33504;52.066;6.096;2023-06-22T09:32:24;101639.63;;;28.73;32.34
47742;BME280;33504;52.066;6.096;2023-06-22T09:34:51;101638.70;;;28.73;32.80
47742;BME280;33504;52.066;6.096;2023-06-22T09:37:18;101633.70;;;29.12;33.05
47742;BME280;33504;52.066;6.096;2023-06-22T09:39:46;101628.14;;;28.76;33.02
47742;BME280;33504;52.066;6.096;2023-06-22T09:42:13;101628.11;;;29.29;32.17
47742;BME280;33504;52.066;6.096;2023-06-22T09:44:39;101628.29;;;29.31;32.59
47742;BME280;33504;52.066;6.096;2023-06-22T09:47:07;101629.91;;;29.29;32.12
47742;BME280;33504;52.066;6.096;2023-06-22T09:49:34;101622.53;;;28.63;32.59
47742;BME280;33504;52.066;6.096;2023-06-22T09:52:01;101623.22;;;28.37;33.11
47742;BME280;33504;52.066;6.096;2023-06-22T09:54:28;101623.48;;;28.65;31.72
47742;BME280;33504;52.066;6.096;2023-06-22T09:56:55;101624.69;;;28.90;31.64
47742;BME280;33504;52.066;6.096;2023-06-22T09:59:23;101624.00;;;28.58;32.30
47742;BME280;33504;52.066;6.096;2023-06-22T10:01:50;101627.95;;;28.61;32.43
47742;BME280;33504;52.066;6.096;2023-06-22T10:04:16;101627.44;;;29.01;32.72
47742;BME280;33504;52.066;6.096;2023-06-22T10:06:43;101628.66;;;28.54;31.77
47742;BME280;33504;52.066;6.096;2023-06-22T10:09:10;101624.05;;;27.94;32.11
47742;BME280;33504;52.066;6.096;2023-06-22T10:11:38;101624.33;;;27.53;32.91
47742;BME280;33504;52.066;6.096;2023-06-22T10:14:05;101622.37;;;27.60;32.96
47742;BME280;33504;52.066;6.096;2023-06-22T10:16:33;101626.17;;;27.03;33.34
47742;BME280;33504;52.066;6.096;2023-06-22T10:19:00;101625.80;;;27.54;33.42
47742;BME280;33504;52.066;6.096;2023-06-22T10:21:27;101625.90;;;27.86;33.06
47742;BME280;33504;52.066;6.096;2023-06-22T10:23:54;101628.93;;;27.46;33.33
47742;BME280;33504;52.066;6.096;2023-06-22T10:26:21;101622.85;;;27.68;33.84
47742;BME280;33504;52.066;6.096;2023-06-22T10:28:49;101621.80;;;27.59;33.47
47742;BME280;33504;52.066;6.096;2023-06-22T10:31:17;101616.43;;;27.97;33.94
47742;BME280;33504;52.066;6.096;2023-06-22T10:33:44;101615.83;;;27.84;34.22
47742;BME280;33504;52.066;6.096;2023-06-22T10:36:11;101617.24;;;27.98;34.18
47742;BME280;33504;52.066;6.096;2023-06-22T10:38:38;101611.11;;;28.11;34.51
47742;BME280;33504;52.066;6.096;2023-06-22T10:41:05;101605.91;;;27.86;34.03
47742;BME280;33504;52.066;6.096;2023-06-22T10:43:32;101602.14;;;27.73;34.64
47742;BME280;33504;52.066;6.096;2023-06-22T10:46:00;101604.55;;;27.81;34.87
47742;BME280;33504;52.066;6.096;2023-06-22T10:48:27;101607.41;;;28.08;34.71
47742;BME280;33504;52.066;6.096;2023-06-22T10:50:55;101609.15;;;28.04;34.88
47742;BME280;33504;52.066;6.096;2023-06-22T10:53:22;101608.59;;;27.79;34.24
47742;BME280;33504;52.066;6.096;2023-06-22T10:55:49;101611.07;;;27.99;34.97
47742;BME280;33504;52.066;6.096;2023-06-22T10:58:18;101611.14;;;28.02;34.87
47742;BME280;33504;52.066;6.096;2023-06-22T11:00:45;101607.87;;;28.12;34.72
47742;BME280;33504;52.066;6.096;2023-06-22T11:03:13;101604.60;;;28.18;34.36
47742;BME280;33504;52.066;6.096;2023-06-22T11:05:40;101601.99;;;27.50;34.26
47742;BME280;33504;52.066;6.096;2023-06-22T11:08:07;101601.09;;;27.62;34.41
47742;BME280;33504;52.066;6.096;2023-06-22T11:10:34;101596.52;;;28.13;34.39
47742;BME280;33504;52.066;6.096;2023-06-22T11:13:01;101593.82;;;28.28;34.34
47742;BME280;33504;52.066;6.096;2023-06-22T11:15:28;101594.41;;;27.77;34.77
47742;BME280;33504;52.066;6.096;2023-06-22T11:17:55;101592.24;;;27.63;34.68
47742;BME280;33504;52.066;6.096;2023-06-22T11:20:22;101591.65;;;27.78;33.75
47742;BME280;33504;52.066;6.096;2023-06-22T11:22:50;101589.42;;;27.72;34.30
47742;BME280;33504;52.066;6.096;2023-06-22T11:25:17;101588.96;;;27.89;34.72
47742;BME280;33504;52.066;6.096;2023-06-22T11:27:45;101583.79;;;27.95;35.32
47742;BME280;33504;52.066;6.096;2023-06-22T11:30:12;101578.80;;;27.98;35.78
47742;BME280;33504;52.066;6.096;2023-06-22T11:32:39;101574.21;;;28.28;36.25
47742;BME280;33504;52.066;6.096;2023-06-22T11:35:07;101573.10;;;27.68;36.45
47742;BME280;33504;52.066;6.096;2023-06-22T11:37:34;101572.87;;;27.94;36.76
47742;BME280;33504;52.066;6.096;2023-06-22T11:40:01;101569.81;;;27.72;37.20
47742;BME280;33504;52.066;6.096;2023-06-22T11:42:29;101565.46;;;27.59;37.81
47742;BME280;33504;52.066;6.096;2023-06-22T11:44:56;101565.79;;;27.58;37.68
47742;BME280;33504;52.066;6.096;2023-06-22T11:47:23;101566.29;;;27.47;37.88
47742;BME280;33504;52.066;6.096;2023-06-22T11:49:50;101569.64;;;27.77;37.92
47742;BME280;33504;52.066;6.096;2023-06-22T11:52:17;101569.24;;;27.77;38.33
47742;BME280;33504;52.066;6.096;2023-06-22T11:54:44;101570.98;;;27.73;38.29
47742;BME280;33504;52.066;6.096;2023-06-22T11:57:11;101574.22;;;27.30;38.27
47742;BME280;33504;52.066;6.096;2023-06-22T11:59:39;101576.46;;;27.69;38.05
47742;BME280;33504;52.066;6.096;2023-06-22T12:02:06;101581.66;;;27.42;38.39
47742;BME280;33504;52.066;6.096;2023-06-22T12:04:34;101583.98;;;27.65;38.03
47742;BME280;33504;52.066;6.096;2023-06-22T12:07:01;101586.50;;;27.61;37.96
47742;BME280;33504;52.066;6.096;2023-06-22T12:09:28;101586.99;;;27.36;38.49
47742;BME280;33504;52.066;6.096;2023-06-22T12:11:55;101584.46;;;27.10;38.14
47742;BME280;33504;52.066;6.096;2023-06-22T12:14:22;101581.87;;;27.27;38.59
47742;BME280;33504;52.066;6.096;2023-06-22T12:16:49;101577.00;;;27.23;38.84
47742;BME280;33504;52.066;6.096;2023-06-22T12:19:17;101572.63;;;27.13;39.11
47742;BME280;33504;52.066;6.096;2023-06-22T12:21:43;101571.34;;;26.78;39.34
47742;BME280;33504;52.066;6.096;2023-06-22T12:24:10;101573.91;;;26.85;40.55
47742;BME280;33504;52.066;6.096;2023-06-22T12:26:37;101577.40;;;26.89;41.40
47742;BME280;33504;52.066;6.096;2023-06-22T12:29:04;101581.59;;;26.74;42.00
47742;BME280;33504;52.066;6.096;2023-06-22T12:31:32;101582.52;;;26.56;43.07
47742;BME280;33504;52.066;6.096;2023-06-22T12:33:59;101584.29;;;26.39;43.50
47742;BME280;33504;52.066;6.096;2023-06-22T12:36:26;101584.72;;;26.20;43.71
47742;BME280;33504;52.066;6.096;2023-06-22T12:38:53;101588.66;;;26.33;43.33
47742;BME280;33504;52.066;6.096;2023-06-22T12:41:20;101584.21;;;26.44;43.98
47742;BME280;33504;52.066;6.096;2023-06-22T12:43:47;101585.20;;;26.07;44.58
47742;BME280;33504;52.066;6.096;2023-06-22T12:46:14;101588.30;;;26.24;45.43
47742;BME280;33504;52.066;6.096;2023-06-22T12:48:41;101591.33;;;25.92;45.97
47742;BME280;33504;52.066;6.096;2023-06-22T12:51:08;101594.75;;;26.07;45.95